createdAt,value
2022-12-24T00:01:53.029Z,3.38
2022-12-24T00:04:20.434Z,3.13
2022-12-24T00:06:47.919Z,3.40
2022-12-24T00:09:16.152Z,2.92
2022-12-24T00:11:43.518Z,3.13
2022-12-24T00:14:10.913Z,3.10
2022-12-24T00:16:39.656Z,2.72
2022-12-24T00:19:07.049Z,2.95
2022-12-24T00:21:34.427Z,3.08
2022-12-24T00:24:03.853Z,2.97
2022-12-24T00:26:31.210Z,2.88
2022-12-24T00:28:58.791Z,2.83
2022-12-24T00:31:26.333Z,2.72
2022-12-24T00:33:55.107Z,2.60
2022-12-24T00:36:22.483Z,2.67
2022-12-24T00:38:49.907Z,2.83
2022-12-24T00:41:28.757Z,2.50
2022-12-24T00:43:56.771Z,2.47
2022-12-24T00:46:24.311Z,2.60
2022-12-24T00:51:12.804Z,2.63
2022-12-24T00:53:40.249Z,2.58
2022-12-24T00:56:08.570Z,2.60
2022-12-24T00:58:36.059Z,2.42
2022-12-24T01:01:03.527Z,2.95
2022-12-24T01:03:36.985Z,2.45
2022-12-24T01:06:03.806Z,2.63
2022-12-24T01:08:33.335Z,2.42
2022-12-24T01:11:00.699Z,2.20
2022-12-24T01:13:28.113Z,2.40
2022-12-24T01:15:55.607Z,2.85
2022-12-24T01:18:23.180Z,2.30
2022-12-24T01:20:57.390Z,2.20
2022-12-24T01:23:24.997Z,2.28
2022-12-24T01:25:53.701Z,2.20
2022-12-24T01:28:21.102Z,2.13
2022-12-24T01:30:48.599Z,1.92
2022-12-24T01:33:16.013Z,1.77
2022-12-24T01:35:43.609Z,2.20
2022-12-24T01:38:11.767Z,2.05
2022-12-24T01:40:56.896Z,1.98
2022-12-24T01:43:28.344Z,2.08
2022-12-24T01:45:56.244Z,2.30
2022-12-24T01:48:34.146Z,2.15
2022-12-24T01:51:03.266Z,2.00
2022-12-24T01:53:31.003Z,1.73
2022-12-24T01:55:58.380Z,1.80
2022-12-24T01:58:27.065Z,1.80
2022-12-24T02:00:54.427Z,1.77
2022-12-24T02:03:21.899Z,2.10
2022-12-24T02:05:50.314Z,1.77
2022-12-24T02:08:17.784Z,1.95
2022-12-24T02:10:45.386Z,1.90
2022-12-24T02:13:13.232Z,2.00
2022-12-24T02:15:50.644Z,1.90
2022-12-24T02:18:21.867Z,1.98
2022-12-24T02:21:00.988Z,1.83
2022-12-24T02:23:39.600Z,1.77
2022-12-24T02:26:16.339Z,1.80
2022-12-24T02:28:52.323Z,1.88
2022-12-24T02:31:21.982Z,1.90
2022-12-24T02:33:50.726Z,1.90
2022-12-24T02:36:21.262Z,2.05
2022-12-24T02:38:50.134Z,1.80
2022-12-24T02:41:18.662Z,1.90
2022-12-24T02:43:46.774Z,1.90
2022-12-24T02:46:15.198Z,1.77
2022-12-24T02:48:44.419Z,2.00
2022-12-24T02:51:12.022Z,2.17
2022-12-24T02:53:39.419Z,1.85
2022-12-24T02:56:23.107Z,1.90
2022-12-24T02:58:59.836Z,2.05
2022-12-24T03:01:31.247Z,2.08
2022-12-24T03:04:07.393Z,1.90
2022-12-24T03:06:39.720Z,2.20
2022-12-24T03:09:09.653Z,2.38
2022-12-24T03:11:37.027Z,2.30
2022-12-24T03:14:04.452Z,2.20
2022-12-24T03:16:31.865Z,2.47
2022-12-24T03:18:59.274Z,2.35
2022-12-24T03:21:29.302Z,2.17
2022-12-24T03:23:56.830Z,2.10
2022-12-24T03:26:24.241Z,2.38
2022-12-24T03:28:51.631Z,2.28
2022-12-24T03:31:19.486Z,2.08
2022-12-24T03:33:47.254Z,2.30
2022-12-24T03:36:14.661Z,2.90
2022-12-24T03:38:43.373Z,2.47
2022-12-24T03:41:11.291Z,3.20
2022-12-24T03:43:38.663Z,2.42
2022-12-24T03:46:07.090Z,2.83
2022-12-24T03:48:34.853Z,2.70
2022-12-24T03:51:02.256Z,3.08
2022-12-24T03:53:29.631Z,2.90
2022-12-24T03:55:58.325Z,2.65
2022-12-24T03:58:25.681Z,2.67
2022-12-24T04:00:53.624Z,3.00
2022-12-24T04:03:21.326Z,2.78
2022-12-24T04:05:48.811Z,3.05
2022-12-24T04:08:16.175Z,3.05
2022-12-24T04:10:43.588Z,2.70
2022-12-24T04:13:12.253Z,2.83
2022-12-24T04:15:39.615Z,2.60
2022-12-24T04:18:06.995Z,3.00
2022-12-24T04:20:34.389Z,2.92
2022-12-24T04:23:01.768Z,3.00
2022-12-24T04:25:29.141Z,2.72
2022-12-24T04:27:56.510Z,3.22
2022-12-24T04:30:25.226Z,3.10
2022-12-24T04:32:52.591Z,2.83
2022-12-24T04:35:19.983Z,3.40
2022-12-24T04:37:47.353Z,2.85
2022-12-24T04:40:14.964Z,3.25
2022-12-24T04:42:42.357Z,3.20
2022-12-24T04:45:10.641Z,3.20
2022-12-24T04:47:39.320Z,3.20
2022-12-24T04:50:07.922Z,3.17
2022-12-24T04:52:35.336Z,3.28
2022-12-24T04:55:02.730Z,3.35
2022-12-24T04:57:32.360Z,3.40
2022-12-24T04:59:59.733Z,3.08
2022-12-24T05:02:27.312Z,3.35
2022-12-24T05:04:56.091Z,3.28
2022-12-24T05:07:23.473Z,3.10
2022-12-24T05:09:50.864Z,3.70
2022-12-24T05:12:18.235Z,3.35
2022-12-24T05:14:45.601Z,3.28
2022-12-24T05:17:13.081Z,3.55
2022-12-24T05:19:40.504Z,3.83
2022-12-24T05:22:27.176Z,3.70
2022-12-24T05:25:12.431Z,3.65
2022-12-24T05:27:39.817Z,3.85
2022-12-24T05:30:08.543Z,4.03
2022-12-24T05:32:36.069Z,4.28
2022-12-24T05:35:03.456Z,4.03
2022-12-24T05:37:32.157Z,3.83
2022-12-24T05:39:59.545Z,3.90
2022-12-24T05:42:26.928Z,3.45
2022-12-24T05:44:54.313Z,4.45
2022-12-24T05:47:21.715Z,4.47
2022-12-24T05:49:49.099Z,4.13
2022-12-24T05:52:16.587Z,4.13
2022-12-24T05:54:45.280Z,3.60
2022-12-24T05:57:13.230Z,4.22
2022-12-24T05:59:40.611Z,3.80
2022-12-24T06:02:08.019Z,4.00
2022-12-24T06:04:35.476Z,4.18
2022-12-24T06:07:02.880Z,4.20
2022-12-24T06:09:30.268Z,4.32
2022-12-24T06:11:58.997Z,4.10
2022-12-24T06:14:26.387Z,3.85
2022-12-24T06:16:53.802Z,4.32
2022-12-24T06:19:21.222Z,4.25
2022-12-24T06:21:48.597Z,4.70
2022-12-24T06:24:16.266Z,3.92
2022-12-24T06:26:43.640Z,4.20
2022-12-24T06:29:12.335Z,4.47
2022-12-24T06:31:39.825Z,4.55
2022-12-24T06:34:07.268Z,4.55
2022-12-24T06:36:34.668Z,4.18
2022-12-24T06:39:02.067Z,4.60
2022-12-24T06:41:29.497Z,4.57
2022-12-24T06:43:56.870Z,4.45
2022-12-24T06:46:25.693Z,3.85
2022-12-24T06:48:54.964Z,4.40
2022-12-24T06:51:22.420Z,4.27
2022-12-24T06:53:50.465Z,3.88
2022-12-24T06:56:18.034Z,4.07
2022-12-24T06:58:45.466Z,3.95
2022-12-24T07:01:14.390Z,4.47
2022-12-24T07:03:43.488Z,4.50
2022-12-24T07:06:12.371Z,4.13
2022-12-24T07:08:39.886Z,3.85
2022-12-24T07:11:07.294Z,4.10
2022-12-24T07:13:34.752Z,4.45
2022-12-24T07:16:02.979Z,4.22
2022-12-24T07:18:30.515Z,4.45
2022-12-24T07:20:59.326Z,4.70
2022-12-24T07:23:26.800Z,4.72
2022-12-24T07:25:54.215Z,4.50
2022-12-24T07:28:27.640Z,4.63
2022-12-24T07:30:55.717Z,4.55
2022-12-24T07:33:23.178Z,4.20
2022-12-24T07:35:55.717Z,4.80
2022-12-24T07:38:24.685Z,4.28
2022-12-24T07:40:52.150Z,4.28
2022-12-24T07:43:19.539Z,4.13
2022-12-24T07:45:47.048Z,4.95
2022-12-24T07:48:14.498Z,4.53
2022-12-24T07:50:41.878Z,4.55
2022-12-24T07:53:09.296Z,4.95
2022-12-24T07:55:38.034Z,4.60
2022-12-24T07:58:05.416Z,4.97
2022-12-24T08:00:32.806Z,4.75
2022-12-24T08:03:01.005Z,4.50
2022-12-24T08:05:28.576Z,5.28
2022-12-24T08:07:56.187Z,5.65
2022-12-24T08:10:23.605Z,4.55
2022-12-24T08:12:52.316Z,5.03
2022-12-24T08:15:19.804Z,5.00
2022-12-24T08:17:47.255Z,5.35
2022-12-24T08:20:16.040Z,5.07
2022-12-24T08:22:43.454Z,5.18
2022-12-24T08:25:11.237Z,5.07
2022-12-24T08:27:38.661Z,4.35
2022-12-24T08:30:08.661Z,4.88
2022-12-24T08:32:36.116Z,5.20
2022-12-24T08:35:03.506Z,5.03
2022-12-24T08:37:30.976Z,4.63
2022-12-24T08:39:58.431Z,4.90
2022-12-24T08:42:25.902Z,5.15
2022-12-24T08:44:53.324Z,4.90
2022-12-24T08:47:22.049Z,5.03
2022-12-24T08:49:49.444Z,5.07
2022-12-24T08:52:16.864Z,4.57
2022-12-24T08:54:44.294Z,5.15
2022-12-24T08:57:11.721Z,5.10
2022-12-24T08:59:39.124Z,5.40
2022-12-24T09:02:06.703Z,5.00
2022-12-24T09:04:35.494Z,4.93
2022-12-24T09:07:02.885Z,4.95
2022-12-24T09:09:36.039Z,5.15
2022-12-24T09:12:05.498Z,5.00
2022-12-24T09:14:32.879Z,5.07
2022-12-24T09:17:00.561Z,5.05
2022-12-24T09:19:28.009Z,5.03
2022-12-24T09:21:56.729Z,4.70
2022-12-24T09:24:24.124Z,4.78
2022-12-24T09:26:57.536Z,4.70
2022-12-24T09:29:25.453Z,4.65
2022-12-24T09:31:55.023Z,4.35
2022-12-24T09:34:28.260Z,5.53
2022-12-24T09:37:00.548Z,4.32
2022-12-24T09:39:27.971Z,4.45
2022-12-24T09:41:58.760Z,4.50
2022-12-24T09:44:34.647Z,4.75
2022-12-24T09:47:08.191Z,4.90
2022-12-24T09:49:39.326Z,4.35
2022-12-24T09:52:10.159Z,4.75
2022-12-24T09:54:38.637Z,5.20
2022-12-24T09:57:08.480Z,4.68
2022-12-24T09:59:40.614Z,5.00
2022-12-24T10:02:10.993Z,4.35
2022-12-24T10:04:38.590Z,5.20
2022-12-24T10:07:09.312Z,5.07
2022-12-24T10:09:39.907Z,4.90
2022-12-24T10:12:10.015Z,4.55
2022-12-24T10:17:21.157Z,4.60
2022-12-24T10:19:51.266Z,4.32
2022-12-24T10:27:19.697Z,4.13
2022-12-24T10:29:48.556Z,4.20
2022-12-24T10:32:20.114Z,4.65
2022-12-24T10:34:52.457Z,4.43
2022-12-24T10:37:23.640Z,4.60
2022-12-24T10:39:51.101Z,4.32
2022-12-24T10:42:18.651Z,4.57
2022-12-24T10:44:46.638Z,4.53
2022-12-24T10:47:14.019Z,4.28
2022-12-24T10:49:44.557Z,5.30
2022-12-24T10:52:12.707Z,4.85
2022-12-24T10:55:04.501Z,4.57
2022-12-24T10:57:31.955Z,4.45
2022-12-24T10:59:59.382Z,4.70
2022-12-24T11:02:28.462Z,5.22
2022-12-24T11:04:56.281Z,5.28
2022-12-24T11:07:24.183Z,4.93
2022-12-24T11:09:57.903Z,4.90
2022-12-24T11:12:26.705Z,5.18
2022-12-24T11:15:00.785Z,4.90
2022-12-24T11:17:28.247Z,4.68
2022-12-24T11:19:55.669Z,5.05
2022-12-24T11:22:24.772Z,5.10
2022-12-24T11:24:59.960Z,5.10
2022-12-24T11:27:33.014Z,5.32
2022-12-24T11:30:18.822Z,5.65
2022-12-24T11:32:47.121Z,5.00
2022-12-24T11:35:16.904Z,5.15
2022-12-24T11:37:44.278Z,5.93
2022-12-24T11:40:22.042Z,5.40
2022-12-24T11:42:53.011Z,5.10
2022-12-24T11:45:23.253Z,5.70
2022-12-24T11:47:50.712Z,5.63
2022-12-24T11:50:22.995Z,4.93
2022-12-24T11:52:51.040Z,5.22
2022-12-24T11:55:22.419Z,5.68
2022-12-24T11:57:54.746Z,5.18
2022-12-24T12:00:22.149Z,6.03
2022-12-24T12:02:50.689Z,5.90
2022-12-24T12:05:19.301Z,5.78
2022-12-24T12:07:47.399Z,5.57
2022-12-24T12:10:18.573Z,4.55
2022-12-24T12:12:48.197Z,5.47
2022-12-24T12:15:17.242Z,6.05
2022-12-24T12:17:45.740Z,5.35
2022-12-24T12:20:14.395Z,5.57
2022-12-24T12:22:46.716Z,5.72
2022-12-24T12:25:20.026Z,5.30
2022-12-24T12:27:49.043Z,5.25
2022-12-24T12:30:17.784Z,5.88
2022-12-24T12:32:48.962Z,5.82
2022-12-24T12:35:20.040Z,5.80
2022-12-24T12:37:49.552Z,5.43
2022-12-24T12:40:17.292Z,5.78
2022-12-24T12:42:47.518Z,5.97
2022-12-24T12:45:33.053Z,5.10
2022-12-24T12:48:19.765Z,5.78
2022-12-24T12:50:49.430Z,5.57
2022-12-24T12:53:25.339Z,5.43
2022-12-24T12:55:56.233Z,5.68
2022-12-24T12:58:26.871Z,5.28
2022-12-24T13:00:59.871Z,5.63
2022-12-24T13:03:56.681Z,5.43
2022-12-24T13:06:32.019Z,5.80
2022-12-24T13:09:24.509Z,4.80
2022-12-24T13:12:00.504Z,5.95
2022-12-24T13:14:37.469Z,5.03
2022-12-24T13:17:46.008Z,5.40
2022-12-24T13:20:19.859Z,5.32
2022-12-24T13:22:51.971Z,5.15
2022-12-24T13:25:23.649Z,5.78
2022-12-24T13:27:51.050Z,5.07
2022-12-24T13:30:35.908Z,5.03
2022-12-24T13:33:04.845Z,5.88
2022-12-24T13:35:37.966Z,5.45
2022-12-24T13:38:43.375Z,5.22
2022-12-24T13:41:41.501Z,4.80
2022-12-24T13:44:22.952Z,5.55
2022-12-24T13:46:56.724Z,5.07
2022-12-24T13:49:32.351Z,5.00
2022-12-24T13:52:24.166Z,5.32
2022-12-24T13:55:08.080Z,5.47
2022-12-24T13:57:38.012Z,5.47
2022-12-24T14:00:09.006Z,5.50
2022-12-24T14:02:38.989Z,5.15
2022-12-24T14:07:36.967Z,4.93
2022-12-24T14:10:06.327Z,5.28
2022-12-24T14:12:46.562Z,5.60
2022-12-24T14:17:59.968Z,4.90
2022-12-24T14:20:28.647Z,5.32
2022-12-24T14:22:56.814Z,5.35
2022-12-24T14:25:24.206Z,5.63
2022-12-24T14:27:52.849Z,5.85
2022-12-24T14:30:21.334Z,5.30
2022-12-24T14:32:49.398Z,6.22
2022-12-24T14:35:18.500Z,5.40
2022-12-24T14:37:48.098Z,5.70
2022-12-24T14:40:16.787Z,6.10
2022-12-24T14:42:48.076Z,5.28
2022-12-24T14:45:19.731Z,5.60
2022-12-24T14:47:50.955Z,5.20
2022-12-24T14:50:41.746Z,5.50
2022-12-24T14:53:20.021Z,4.72
2022-12-24T14:55:48.003Z,5.25
2022-12-24T14:58:26.931Z,6.00
2022-12-24T15:00:56.170Z,5.20
2022-12-24T15:03:24.765Z,4.50
2022-12-24T15:05:53.370Z,5.22
2022-12-24T15:08:24.682Z,5.60
2022-12-24T15:10:53.180Z,6.15
2022-12-24T15:13:24.351Z,5.25
2022-12-24T15:15:53.369Z,5.55
2022-12-24T15:18:22.540Z,5.47
2022-12-24T15:20:52.250Z,5.60
2022-12-24T15:23:19.989Z,5.93
2022-12-24T15:25:48.960Z,4.85
2022-12-24T15:28:18.174Z,5.18
2022-12-24T15:30:45.579Z,6.00
2022-12-24T15:33:13.017Z,5.10
2022-12-24T15:35:52.740Z,5.15
2022-12-24T15:38:28.317Z,5.65
2022-12-24T15:40:57.016Z,5.07
2022-12-24T15:43:24.503Z,5.05
2022-12-24T15:45:51.921Z,4.85
2022-12-24T15:48:23.409Z,5.43
2022-12-24T15:50:51.295Z,5.07
2022-12-24T15:53:23.449Z,5.57
2022-12-24T15:56:05.342Z,5.53
2022-12-24T15:58:34.109Z,5.07
2022-12-24T16:01:03.073Z,5.82
2022-12-24T16:03:30.519Z,5.10
2022-12-24T16:06:01.741Z,5.43
2022-12-24T16:08:33.445Z,5.60
2022-12-24T16:11:10.857Z,4.72
2022-12-24T16:13:39.219Z,5.60
2022-12-24T16:16:08.118Z,5.72
2022-12-24T16:18:36.707Z,5.38
2022-12-24T16:21:04.530Z,6.22
2022-12-24T16:23:40.807Z,5.80
2022-12-24T16:26:09.495Z,5.85
2022-12-24T16:28:36.855Z,5.97
2022-12-24T16:31:04.350Z,6.00
2022-12-24T16:33:31.743Z,5.70
2022-12-24T16:35:59.138Z,5.60
2022-12-24T16:38:46.504Z,6.85
2022-12-24T16:41:15.316Z,6.97
2022-12-24T16:43:50.539Z,6.60
2022-12-24T16:46:18.029Z,6.18
2022-12-24T16:48:46.930Z,6.40
2022-12-24T16:51:14.297Z,6.53
2022-12-24T16:53:42.063Z,6.13
2022-12-24T16:56:09.598Z,6.20
2022-12-24T16:58:38.285Z,6.20
2022-12-24T17:01:09.985Z,6.22
2022-12-24T17:03:37.629Z,6.70
2022-12-24T17:06:07.003Z,6.72
2022-12-24T17:08:34.406Z,5.90
2022-12-24T17:11:01.794Z,6.40
2022-12-24T17:13:29.244Z,6.72
2022-12-24T17:15:57.967Z,6.53
2022-12-24T17:18:27.477Z,6.50
2022-12-24T17:20:59.553Z,6.30
2022-12-24T17:23:26.946Z,6.28
2022-12-24T17:25:54.324Z,6.78
2022-12-24T17:28:22.038Z,6.43
2022-12-24T17:30:49.435Z,6.20
2022-12-24T17:33:18.116Z,6.00
2022-12-24T17:35:48.191Z,7.05
2022-12-24T17:38:15.559Z,6.80
2022-12-24T17:40:42.944Z,6.35
2022-12-24T17:43:10.722Z,5.95
2022-12-24T17:45:41.643Z,5.82
2022-12-24T17:48:09.027Z,6.07
2022-12-24T17:50:40.363Z,6.15
2022-12-24T17:53:07.801Z,6.35
2022-12-24T17:55:35.161Z,5.85
2022-12-24T17:58:02.531Z,5.95
2022-12-24T18:00:33.145Z,6.28
2022-12-24T18:03:01.054Z,5.80
2022-12-24T18:05:28.479Z,6.32
2022-12-24T18:07:57.170Z,6.18
2022-12-24T18:10:24.842Z,6.35
2022-12-24T18:12:52.215Z,5.97
2022-12-24T18:15:20.296Z,6.45
2022-12-24T18:17:51.443Z,5.88
2022-12-24T18:20:18.822Z,5.68
2022-12-24T18:22:46.213Z,5.75
2022-12-24T18:25:14.889Z,5.82
2022-12-24T18:27:42.270Z,6.05
2022-12-24T18:30:10.659Z,6.35
2022-12-24T18:32:38.189Z,6.07
2022-12-24T18:35:06.155Z,5.90
2022-12-24T18:37:33.584Z,5.72
2022-12-24T18:40:00.992Z,5.82
2022-12-24T18:42:29.676Z,5.80
2022-12-24T18:44:57.042Z,5.90
2022-12-24T18:47:24.429Z,5.60
2022-12-24T18:49:51.810Z,6.00
2022-12-24T18:52:22.566Z,6.00
2022-12-24T18:54:50.718Z,5.63
2022-12-24T18:57:18.107Z,5.93
2022-12-24T18:59:46.848Z,5.78
2022-12-24T19:02:14.366Z,6.65
2022-12-24T19:04:41.800Z,5.93
2022-12-24T19:07:09.203Z,6.03
2022-12-24T19:09:36.570Z,6.25
2022-12-24T19:12:04.494Z,6.47
2022-12-24T19:14:31.866Z,6.00
2022-12-24T19:17:00.585Z,6.25
2022-12-24T19:19:27.951Z,6.65
2022-12-24T19:21:55.343Z,5.47
2022-12-24T19:24:22.759Z,5.82
2022-12-24T19:26:50.197Z,6.53
2022-12-24T19:29:17.602Z,6.05
2022-12-24T19:31:47.258Z,7.00
2022-12-24T19:34:16.061Z,6.57
2022-12-24T19:36:43.514Z,6.45
2022-12-24T19:39:10.901Z,6.65
2022-12-24T19:41:38.619Z,7.15
2022-12-24T19:44:06.235Z,6.32
2022-12-24T19:46:36.074Z,6.25
2022-12-24T19:49:05.913Z,6.72
2022-12-24T19:51:34.797Z,6.30
2022-12-24T19:54:02.682Z,7.47
2022-12-24T19:56:31.878Z,6.82
2022-12-24T19:58:59.435Z,6.87
2022-12-24T20:01:28.450Z,6.05
2022-12-24T20:03:56.092Z,6.90
2022-12-24T20:06:24.367Z,6.82
2022-12-24T20:08:53.141Z,6.47
2022-12-24T20:11:22.166Z,7.18
2022-12-24T20:13:49.596Z,6.40
2022-12-24T20:16:19.042Z,6.45
2022-12-24T20:18:51.636Z,6.55
2022-12-24T20:21:19.022Z,7.00
2022-12-24T20:23:46.453Z,6.47
2022-12-24T20:26:16.013Z,6.90
2022-12-24T20:28:43.758Z,6.75
2022-12-24T20:31:12.519Z,6.32
2022-12-24T20:33:40.051Z,6.15
2022-12-24T20:36:07.697Z,6.75
2022-12-24T20:38:35.107Z,6.20
2022-12-24T20:41:02.483Z,6.15
2022-12-24T20:43:36.136Z,6.28
2022-12-24T20:46:06.269Z,6.63
2022-12-24T20:48:33.827Z,6.30
2022-12-24T20:51:01.402Z,6.18
2022-12-24T20:53:29.139Z,6.22
2022-12-24T20:55:56.526Z,6.10
2022-12-24T20:58:23.935Z,6.55
2022-12-24T21:00:52.647Z,6.07
2022-12-24T21:03:20.190Z,6.00
2022-12-24T21:05:47.733Z,6.50
2022-12-24T21:08:15.195Z,6.07
2022-12-24T21:10:42.596Z,6.30
2022-12-24T21:13:09.066Z,6.00
2022-12-24T21:15:38.713Z,5.93
2022-12-24T21:18:11.494Z,6.00
2022-12-24T21:20:38.962Z,5.93
2022-12-24T21:23:06.371Z,6.43
2022-12-24T21:25:33.963Z,5.65
2022-12-24T21:28:01.343Z,5.70
2022-12-24T21:30:28.806Z,6.15
2022-12-24T21:32:56.265Z,5.93
2022-12-24T21:35:24.986Z,6.15
2022-12-24T21:37:52.357Z,6.28
2022-12-24T21:40:19.767Z,5.93
2022-12-24T21:42:47.158Z,6.30
2022-12-24T21:45:14.528Z,6.40
2022-12-24T21:47:44.544Z,5.60
2022-12-24T21:50:31.734Z,5.85
2022-12-24T21:53:14.897Z,5.88
2022-12-24T21:55:42.263Z,5.90
2022-12-24T21:58:08.707Z,5.55
2022-12-24T22:00:36.090Z,5.93
2022-12-24T22:03:03.606Z,5.78
2022-12-24T22:05:33.210Z,5.68
2022-12-24T22:08:19.809Z,5.72
2022-12-24T22:11:04.496Z,5.40
2022-12-24T22:13:31.980Z,5.95
2022-12-24T22:15:59.424Z,5.72
2022-12-24T22:18:27.034Z,5.85
2022-12-24T22:20:54.871Z,5.53
2022-12-24T22:23:23.603Z,5.07
2022-12-24T22:25:51.060Z,5.05
2022-12-24T22:28:19.445Z,5.63
2022-12-24T22:30:46.892Z,5.43
2022-12-24T22:33:14.373Z,5.03
2022-12-24T22:35:41.881Z,5.40
2022-12-24T22:38:09.490Z,5.53
2022-12-24T22:40:39.690Z,5.57
2022-12-24T22:45:34.298Z,5.25
2022-12-24T22:48:01.674Z,5.57
2022-12-24T22:50:29.048Z,5.28
2022-12-24T22:52:56.440Z,5.05
2022-12-24T22:55:23.811Z,4.97
2022-12-24T22:57:52.506Z,4.90
2022-12-24T23:00:37.522Z,4.68
2022-12-24T23:03:05.432Z,5.18
2022-12-24T23:05:32.993Z,4.72
2022-12-24T23:08:00.470Z,5.15
2022-12-24T23:10:27.848Z,4.85
2022-12-24T23:13:15.381Z,4.82
2022-12-24T23:15:43.094Z,4.65
2022-12-24T23:18:10.548Z,5.28
2022-12-24T23:20:38.754Z,5.30
2022-12-24T23:23:06.135Z,4.90
2022-12-24T23:25:33.627Z,4.78
2022-12-24T23:28:02.307Z,4.50
2022-12-24T23:30:29.690Z,4.88
2022-12-24T23:32:57.083Z,4.32
2022-12-24T23:35:24.460Z,4.70
2022-12-24T23:37:51.867Z,4.75
2022-12-24T23:40:19.481Z,4.57
2022-12-24T23:42:46.871Z,4.40
2022-12-24T23:45:15.652Z,4.28
2022-12-24T23:47:43.165Z,4.55
2022-12-24T23:50:11.170Z,4.90
2022-12-24T23:52:38.550Z,5.00
2022-12-24T23:55:06.852Z,4.70
2022-12-24T23:57:34.238Z,4.28
